<?xml version="1.0" encoding="UTF-8" ?>
<gpx version="1.1" xmlns:xsi="http://www.w3.org/2001/XMLSchema-instance" 
    xmlns="http://www.topografix.com/GPX/1/1" 
    xsi:schemaLocation="http://www.topografix.com/GPX/1/1 http://www.topografix.com/GPX/1/1/gpx.xsd" 
    creator="Openrunner - https://www.openrunner.com" >	<trk>
						<name>Le Pont Rompu - Saint Andéol le Château-21745394</name>
						<trkseg>
					<trkpt lat="45.584270" lon="4.693240">
						<ele>323</ele>
						<time>2025-06-25T07:51:26Z</time>
					</trkpt>
					<trkpt lat="45.584260" lon="4.693270">
						<ele>322</ele>
						<time>2025-06-25T07:51:29Z</time>
					</trkpt>
					<trkpt lat="45.584440" lon="4.693260">
						<ele>323</ele>
						<time>2025-06-25T07:51:53Z</time>
					</trkpt>
					<trkpt lat="45.584630" lon="4.693270">
						<ele>323</ele>
						<time>2025-06-25T07:52:19Z</time>
					</trkpt>
					<trkpt lat="45.584990" lon="4.693220">
						<ele>324</ele>
						<time>2025-06-25T07:53:07Z</time>
					</trkpt>
					<trkpt lat="45.585470" lon="4.693180">
						<ele>324</ele>
						<time>2025-06-25T07:54:11Z</time>
					</trkpt>
					<trkpt lat="45.585560" lon="4.693170">
						<ele>324</ele>
						<time>2025-06-25T07:54:23Z</time>
					</trkpt>
					<trkpt lat="45.585830" lon="4.693130">
						<ele>324</ele>
						<time>2025-06-25T07:54:59Z</time>
					</trkpt>
					<trkpt lat="45.586460" lon="4.693040">
						<ele>327</ele>
						<time>2025-06-25T07:56:24Z</time>
					</trkpt>
					<trkpt lat="45.586740" lon="4.692950">
						<ele>328</ele>
						<time>2025-06-25T07:57:02Z</time>
					</trkpt>
					<trkpt lat="45.587030" lon="4.692850">
						<ele>329</ele>
						<time>2025-06-25T07:57:42Z</time>
					</trkpt>
					<trkpt lat="45.587110" lon="4.692780">
						<ele>329</ele>
						<time>2025-06-25T07:57:54Z</time>
					</trkpt>
					<trkpt lat="45.587230" lon="4.692960">
						<ele>329</ele>
						<time>2025-06-25T07:58:18Z</time>
					</trkpt>
					<trkpt lat="45.587250" lon="4.693040">
						<ele>329</ele>
						<time>2025-06-25T07:58:25Z</time>
					</trkpt>
					<trkpt lat="45.588080" lon="4.692840">
						<ele>333</ele>
						<time>2025-06-25T08:00:18Z</time>
					</trkpt>
					<trkpt lat="45.588400" lon="4.692790">
						<ele>334</ele>
						<time>2025-06-25T08:01:01Z</time>
					</trkpt>
					<trkpt lat="45.588720" lon="4.692740">
						<ele>335</ele>
						<time>2025-06-25T08:01:44Z</time>
					</trkpt>
					<trkpt lat="45.589920" lon="4.693160">
						<ele>338</ele>
						<time>2025-06-25T08:04:29Z</time>
					</trkpt>
					<trkpt lat="45.589950" lon="4.693140">
						<ele>338</ele>
						<time>2025-06-25T08:04:33Z</time>
					</trkpt>
					<trkpt lat="45.589920" lon="4.693160">
						<ele>338</ele>
						<time>2025-06-25T08:04:37Z</time>
					</trkpt>
					<trkpt lat="45.589920" lon="4.693660">
						<ele>338</ele>
						<time>2025-06-25T08:05:24Z</time>
					</trkpt>
					<trkpt lat="45.589870" lon="4.695130">
						<ele>335</ele>
						<time>2025-06-25T08:07:42Z</time>
					</trkpt>
					<trkpt lat="45.589880" lon="4.695200">
						<ele>335</ele>
						<time>2025-06-25T08:07:48Z</time>
					</trkpt>
					<trkpt lat="45.589850" lon="4.697140">
						<ele>327</ele>
						<time>2025-06-25T08:10:49Z</time>
					</trkpt>
					<trkpt lat="45.589830" lon="4.697640">
						<ele>326</ele>
						<time>2025-06-25T08:11:36Z</time>
					</trkpt>
					<trkpt lat="45.589810" lon="4.697920">
						<ele>325</ele>
						<time>2025-06-25T08:12:02Z</time>
					</trkpt>
					<trkpt lat="45.589880" lon="4.698270">
						<ele>324</ele>
						<time>2025-06-25T08:12:36Z</time>
					</trkpt>
					<trkpt lat="45.589880" lon="4.698300">
						<ele>324</ele>
						<time>2025-06-25T08:12:39Z</time>
					</trkpt>
					<trkpt lat="45.589880" lon="4.698270">
						<ele>324</ele>
						<time>2025-06-25T08:12:42Z</time>
					</trkpt>
					<trkpt lat="45.589970" lon="4.698330">
						<ele>324</ele>
						<time>2025-06-25T08:12:55Z</time>
					</trkpt>
					<trkpt lat="45.590120" lon="4.698470">
						<ele>324</ele>
						<time>2025-06-25T08:13:19Z</time>
					</trkpt>
					<trkpt lat="45.590530" lon="4.698920">
						<ele>326</ele>
						<time>2025-06-25T08:14:28Z</time>
					</trkpt>
					<trkpt lat="45.590600" lon="4.699030">
						<ele>326</ele>
						<time>2025-06-25T08:14:42Z</time>
					</trkpt>
					<trkpt lat="45.590720" lon="4.699400">
						<ele>326</ele>
						<time>2025-06-25T08:15:20Z</time>
					</trkpt>
					<trkpt lat="45.590810" lon="4.699600">
						<ele>326</ele>
						<time>2025-06-25T08:15:42Z</time>
					</trkpt>
					<trkpt lat="45.590880" lon="4.699680">
						<ele>326</ele>
						<time>2025-06-25T08:15:54Z</time>
					</trkpt>
					<trkpt lat="45.591110" lon="4.699870">
						<ele>327</ele>
						<time>2025-06-25T08:16:30Z</time>
					</trkpt>
					<trkpt lat="45.591310" lon="4.700060">
						<ele>327</ele>
						<time>2025-06-25T08:17:02Z</time>
					</trkpt>
					<trkpt lat="45.591960" lon="4.700490">
						<ele>327</ele>
						<time>2025-06-25T08:18:37Z</time>
					</trkpt>
					<trkpt lat="45.592340" lon="4.700740">
						<ele>328</ele>
						<time>2025-06-25T08:19:33Z</time>
					</trkpt>
					<trkpt lat="45.592920" lon="4.701200">
						<ele>327</ele>
						<time>2025-06-25T08:21:02Z</time>
					</trkpt>
					<trkpt lat="45.593370" lon="4.701590">
						<ele>327</ele>
						<time>2025-06-25T08:22:12Z</time>
					</trkpt>
					<trkpt lat="45.594370" lon="4.702570">
						<ele>326</ele>
						<time>2025-06-25T08:24:54Z</time>
					</trkpt>
					<trkpt lat="45.594990" lon="4.703220">
						<ele>327</ele>
						<time>2025-06-25T08:26:36Z</time>
					</trkpt>
					<trkpt lat="45.595110" lon="4.703360">
						<ele>327</ele>
						<time>2025-06-25T08:26:57Z</time>
					</trkpt>
					<trkpt lat="45.595190" lon="4.703550">
						<ele>327</ele>
						<time>2025-06-25T08:27:18Z</time>
					</trkpt>
					<trkpt lat="45.595290" lon="4.703860">
						<ele>326</ele>
						<time>2025-06-25T08:27:50Z</time>
					</trkpt>
					<trkpt lat="45.595330" lon="4.703960">
						<ele>326</ele>
						<time>2025-06-25T08:28:00Z</time>
					</trkpt>
					<trkpt lat="45.595700" lon="4.704440">
						<ele>326</ele>
						<time>2025-06-25T08:29:07Z</time>
					</trkpt>
					<trkpt lat="45.595830" lon="4.704690">
						<ele>325</ele>
						<time>2025-06-25T08:29:36Z</time>
					</trkpt>
					<trkpt lat="45.595870" lon="4.704860">
						<ele>325</ele>
						<time>2025-06-25T08:29:53Z</time>
					</trkpt>
					<trkpt lat="45.595910" lon="4.704870">
						<ele>324</ele>
						<time>2025-06-25T08:29:58Z</time>
					</trkpt>
					<trkpt lat="45.596000" lon="4.704930">
						<ele>324</ele>
						<time>2025-06-25T08:30:12Z</time>
					</trkpt>
					<trkpt lat="45.596260" lon="4.705180">
						<ele>324</ele>
						<time>2025-06-25T08:30:53Z</time>
					</trkpt>
					<trkpt lat="45.596370" lon="4.705300">
						<ele>323</ele>
						<time>2025-06-25T08:31:12Z</time>
					</trkpt>
					<trkpt lat="45.596870" lon="4.705970">
						<ele>321</ele>
						<time>2025-06-25T08:32:43Z</time>
					</trkpt>
					<trkpt lat="45.596970" lon="4.706080">
						<ele>320</ele>
						<time>2025-06-25T08:33:00Z</time>
					</trkpt>
					<trkpt lat="45.597170" lon="4.706290">
						<ele>319</ele>
						<time>2025-06-25T08:33:33Z</time>
					</trkpt>
					<trkpt lat="45.597230" lon="4.706210">
						<ele>319</ele>
						<time>2025-06-25T08:33:44Z</time>
					</trkpt>
					<trkpt lat="45.597300" lon="4.706120">
						<ele>319</ele>
						<time>2025-06-25T08:33:57Z</time>
					</trkpt>
					<trkpt lat="45.597380" lon="4.705850">
						<ele>320</ele>
						<time>2025-06-25T08:34:24Z</time>
					</trkpt>
					<trkpt lat="45.597510" lon="4.705340">
						<ele>322</ele>
						<time>2025-06-25T08:35:15Z</time>
					</trkpt>
					<trkpt lat="45.598210" lon="4.703420">
						<ele>320</ele>
						<time>2025-06-25T08:38:37Z</time>
					</trkpt>
					<trkpt lat="45.598830" lon="4.701530">
						<ele>319</ele>
						<time>2025-06-25T08:41:52Z</time>
					</trkpt>
					<trkpt lat="45.598950" lon="4.701310">
						<ele>318</ele>
						<time>2025-06-25T08:42:18Z</time>
					</trkpt>
					<trkpt lat="45.598990" lon="4.701240">
						<ele>318</ele>
						<time>2025-06-25T08:42:26Z</time>
					</trkpt>
					<trkpt lat="45.599000" lon="4.701070">
						<ele>318</ele>
						<time>2025-06-25T08:42:42Z</time>
					</trkpt>
					<trkpt lat="45.598980" lon="4.700840">
						<ele>318</ele>
						<time>2025-06-25T08:43:04Z</time>
					</trkpt>
					<trkpt lat="45.598950" lon="4.700750">
						<ele>319</ele>
						<time>2025-06-25T08:43:13Z</time>
					</trkpt>
					<trkpt lat="45.598930" lon="4.700580">
						<ele>320</ele>
						<time>2025-06-25T08:43:29Z</time>
					</trkpt>
					<trkpt lat="45.598830" lon="4.700150">
						<ele>322</ele>
						<time>2025-06-25T08:44:12Z</time>
					</trkpt>
					<trkpt lat="45.598780" lon="4.699920">
						<ele>324</ele>
						<time>2025-06-25T08:44:34Z</time>
					</trkpt>
					<trkpt lat="45.598710" lon="4.699800">
						<ele>325</ele>
						<time>2025-06-25T08:44:49Z</time>
					</trkpt>
					<trkpt lat="45.598700" lon="4.699640">
						<ele>325</ele>
						<time>2025-06-25T08:45:04Z</time>
					</trkpt>
					<trkpt lat="45.598660" lon="4.699470">
						<ele>326</ele>
						<time>2025-06-25T08:45:21Z</time>
					</trkpt>
					<trkpt lat="45.598680" lon="4.699340">
						<ele>326</ele>
						<time>2025-06-25T08:45:33Z</time>
					</trkpt>
					<trkpt lat="45.598670" lon="4.699250">
						<ele>327</ele>
						<time>2025-06-25T08:45:41Z</time>
					</trkpt>
					<trkpt lat="45.598570" lon="4.698910">
						<ele>328</ele>
						<time>2025-06-25T08:46:16Z</time>
					</trkpt>
					<trkpt lat="45.598460" lon="4.698660">
						<ele>330</ele>
						<time>2025-06-25T08:46:44Z</time>
					</trkpt>
					<trkpt lat="45.598400" lon="4.698540">
						<ele>330</ele>
						<time>2025-06-25T08:46:57Z</time>
					</trkpt>
					<trkpt lat="45.598290" lon="4.697560">
						<ele>331</ele>
						<time>2025-06-25T08:48:30Z</time>
					</trkpt>
					<trkpt lat="45.598220" lon="4.696680">
						<ele>328</ele>
						<time>2025-06-25T08:49:53Z</time>
					</trkpt>
					<trkpt lat="45.598130" lon="4.696020">
						<ele>329</ele>
						<time>2025-06-25T08:50:55Z</time>
					</trkpt>
					<trkpt lat="45.598130" lon="4.695510">
						<ele>329</ele>
						<time>2025-06-25T08:51:43Z</time>
					</trkpt>
					<trkpt lat="45.598110" lon="4.695310">
						<ele>329</ele>
						<time>2025-06-25T08:52:02Z</time>
					</trkpt>
					<trkpt lat="45.598030" lon="4.694630">
						<ele>329</ele>
						<time>2025-06-25T08:53:06Z</time>
					</trkpt>
					<trkpt lat="45.598010" lon="4.694350">
						<ele>330</ele>
						<time>2025-06-25T08:53:33Z</time>
					</trkpt>
					<trkpt lat="45.598000" lon="4.694260">
						<ele>330</ele>
						<time>2025-06-25T08:53:41Z</time>
					</trkpt>
					<trkpt lat="45.597940" lon="4.693820">
						<ele>330</ele>
						<time>2025-06-25T08:54:23Z</time>
					</trkpt>
					<trkpt lat="45.597960" lon="4.693420">
						<ele>330</ele>
						<time>2025-06-25T08:55:00Z</time>
					</trkpt>
					<trkpt lat="45.597960" lon="4.693290">
						<ele>330</ele>
						<time>2025-06-25T08:55:13Z</time>
					</trkpt>
					<trkpt lat="45.597780" lon="4.692190">
						<ele>329</ele>
						<time>2025-06-25T08:56:58Z</time>
					</trkpt>
					<trkpt lat="45.597740" lon="4.691880">
						<ele>328</ele>
						<time>2025-06-25T08:57:27Z</time>
					</trkpt>
					<trkpt lat="45.597650" lon="4.691070">
						<ele>328</ele>
						<time>2025-06-25T08:58:44Z</time>
					</trkpt>
					<trkpt lat="45.597600" lon="4.690500">
						<ele>328</ele>
						<time>2025-06-25T08:59:38Z</time>
					</trkpt>
					<trkpt lat="45.597580" lon="4.690420">
						<ele>328</ele>
						<time>2025-06-25T08:59:46Z</time>
					</trkpt>
					<trkpt lat="45.597500" lon="4.690290">
						<ele>329</ele>
						<time>2025-06-25T09:00:02Z</time>
					</trkpt>
					<trkpt lat="45.597390" lon="4.690010">
						<ele>330</ele>
						<time>2025-06-25T09:00:32Z</time>
					</trkpt>
					<trkpt lat="45.597310" lon="4.689650">
						<ele>331</ele>
						<time>2025-06-25T09:01:07Z</time>
					</trkpt>
					<trkpt lat="45.597170" lon="4.688950">
						<ele>331</ele>
						<time>2025-06-25T09:02:15Z</time>
					</trkpt>
					<trkpt lat="45.597130" lon="4.688680">
						<ele>332</ele>
						<time>2025-06-25T09:02:41Z</time>
					</trkpt>
					<trkpt lat="45.597100" lon="4.688370">
						<ele>332</ele>
						<time>2025-06-25T09:03:10Z</time>
					</trkpt>
					<trkpt lat="45.597110" lon="4.688250">
						<ele>332</ele>
						<time>2025-06-25T09:03:21Z</time>
					</trkpt>
					<trkpt lat="45.597130" lon="4.688090">
						<ele>332</ele>
						<time>2025-06-25T09:03:36Z</time>
					</trkpt>
					<trkpt lat="45.597150" lon="4.688090">
						<ele>332</ele>
						<time>2025-06-25T09:03:39Z</time>
					</trkpt>
					<trkpt lat="45.597170" lon="4.688060">
						<ele>332</ele>
						<time>2025-06-25T09:03:43Z</time>
					</trkpt>
					<trkpt lat="45.597490" lon="4.687530">
						<ele>331</ele>
						<time>2025-06-25T09:04:48Z</time>
					</trkpt>
					<trkpt lat="45.597680" lon="4.687130">
						<ele>330</ele>
						<time>2025-06-25T09:05:33Z</time>
					</trkpt>
					<trkpt lat="45.597750" lon="4.686820">
						<ele>330</ele>
						<time>2025-06-25T09:06:04Z</time>
					</trkpt>
					<trkpt lat="45.597730" lon="4.686740">
						<ele>330</ele>
						<time>2025-06-25T09:06:12Z</time>
					</trkpt>
					<trkpt lat="45.597900" lon="4.686900">
						<ele>329</ele>
						<time>2025-06-25T09:06:39Z</time>
					</trkpt>
					<trkpt lat="45.598260" lon="4.687310">
						<ele>328</ele>
						<time>2025-06-25T09:07:40Z</time>
					</trkpt>
					<trkpt lat="45.598450" lon="4.687580">
						<ele>327</ele>
						<time>2025-06-25T09:08:16Z</time>
					</trkpt>
					<trkpt lat="45.599050" lon="4.688260">
						<ele>322</ele>
						<time>2025-06-25T09:09:58Z</time>
					</trkpt>
					<trkpt lat="45.599420" lon="4.688730">
						<ele>320</ele>
						<time>2025-06-25T09:11:04Z</time>
					</trkpt>
					<trkpt lat="45.599450" lon="4.688870">
						<ele>320</ele>
						<time>2025-06-25T09:11:18Z</time>
					</trkpt>
					<trkpt lat="45.599590" lon="4.689160">
						<ele>320</ele>
						<time>2025-06-25T09:11:51Z</time>
					</trkpt>
					<trkpt lat="45.599670" lon="4.689390">
						<ele>319</ele>
						<time>2025-06-25T09:12:15Z</time>
					</trkpt>
					<trkpt lat="45.599900" lon="4.689890">
						<ele>317</ele>
						<time>2025-06-25T09:13:11Z</time>
					</trkpt>
					<trkpt lat="45.599980" lon="4.690020">
						<ele>316</ele>
						<time>2025-06-25T09:13:27Z</time>
					</trkpt>
					<trkpt lat="45.600080" lon="4.690080">
						<ele>316</ele>
						<time>2025-06-25T09:13:41Z</time>
					</trkpt>
					<trkpt lat="45.600320" lon="4.690420">
						<ele>315</ele>
						<time>2025-06-25T09:14:27Z</time>
					</trkpt>
					<trkpt lat="45.600430" lon="4.690590">
						<ele>315</ele>
						<time>2025-06-25T09:14:48Z</time>
					</trkpt>
					<trkpt lat="45.600570" lon="4.690720">
						<ele>315</ele>
						<time>2025-06-25T09:15:10Z</time>
					</trkpt>
					<trkpt lat="45.600730" lon="4.690840">
						<ele>314</ele>
						<time>2025-06-25T09:15:35Z</time>
					</trkpt>
					<trkpt lat="45.601640" lon="4.691670">
						<ele>307</ele>
						<time>2025-06-25T09:17:59Z</time>
					</trkpt>
					<trkpt lat="45.601700" lon="4.691730">
						<ele>307</ele>
						<time>2025-06-25T09:18:08Z</time>
					</trkpt>
					<trkpt lat="45.602610" lon="4.691200">
						<ele>302</ele>
						<time>2025-06-25T09:20:20Z</time>
					</trkpt>
					<trkpt lat="45.603230" lon="4.690970">
						<ele>302</ele>
						<time>2025-06-25T09:21:45Z</time>
					</trkpt>
					<trkpt lat="45.603730" lon="4.690800">
						<ele>300</ele>
						<time>2025-06-25T09:22:54Z</time>
					</trkpt>
					<trkpt lat="45.603910" lon="4.690790">
						<ele>299</ele>
						<time>2025-06-25T09:23:18Z</time>
					</trkpt>
					<trkpt lat="45.603930" lon="4.690760">
						<ele>299</ele>
						<time>2025-06-25T09:23:22Z</time>
					</trkpt>
					<trkpt lat="45.603970" lon="4.690660">
						<ele>299</ele>
						<time>2025-06-25T09:23:32Z</time>
					</trkpt>
					<trkpt lat="45.604610" lon="4.691010">
						<ele>297</ele>
						<time>2025-06-25T09:25:04Z</time>
					</trkpt>
					<trkpt lat="45.605470" lon="4.691140">
						<ele>298</ele>
						<time>2025-06-25T09:26:59Z</time>
					</trkpt>
					<trkpt lat="45.605960" lon="4.691610">
						<ele>301</ele>
						<time>2025-06-25T09:28:18Z</time>
					</trkpt>
					<trkpt lat="45.606260" lon="4.692040">
						<ele>302</ele>
						<time>2025-06-25T09:29:15Z</time>
					</trkpt>
					<trkpt lat="45.606740" lon="4.692840">
						<ele>304</ele>
						<time>2025-06-25T09:30:53Z</time>
					</trkpt>
					<trkpt lat="45.606840" lon="4.693070">
						<ele>305</ele>
						<time>2025-06-25T09:31:18Z</time>
					</trkpt>
					<trkpt lat="45.606640" lon="4.693570">
						<ele>305</ele>
						<time>2025-06-25T09:32:12Z</time>
					</trkpt>
					<trkpt lat="45.606590" lon="4.693750">
						<ele>305</ele>
						<time>2025-06-25T09:32:30Z</time>
					</trkpt>
					<trkpt lat="45.606500" lon="4.694760">
						<ele>303</ele>
						<time>2025-06-25T09:34:05Z</time>
					</trkpt>
					<trkpt lat="45.606460" lon="4.695200">
						<ele>301</ele>
						<time>2025-06-25T09:34:47Z</time>
					</trkpt>
					<trkpt lat="45.606420" lon="4.695380">
						<ele>300</ele>
						<time>2025-06-25T09:35:04Z</time>
					</trkpt>
					<trkpt lat="45.606060" lon="4.696390">
						<ele>297</ele>
						<time>2025-06-25T09:36:50Z</time>
					</trkpt>
					<trkpt lat="45.606060" lon="4.696450">
						<ele>297</ele>
						<time>2025-06-25T09:36:56Z</time>
					</trkpt>
					<trkpt lat="45.606190" lon="4.696710">
						<ele>298</ele>
						<time>2025-06-25T09:37:25Z</time>
					</trkpt>
					<trkpt lat="45.606190" lon="4.696800">
						<ele>298</ele>
						<time>2025-06-25T09:37:34Z</time>
					</trkpt>
					<trkpt lat="45.606090" lon="4.697340">
						<ele>298</ele>
						<time>2025-06-25T09:38:26Z</time>
					</trkpt>
					<trkpt lat="45.606010" lon="4.697660">
						<ele>298</ele>
						<time>2025-06-25T09:38:58Z</time>
					</trkpt>
					<trkpt lat="45.605870" lon="4.698300">
						<ele>297</ele>
						<time>2025-06-25T09:40:00Z</time>
					</trkpt>
					<trkpt lat="45.605870" lon="4.698380">
						<ele>297</ele>
						<time>2025-06-25T09:40:08Z</time>
					</trkpt>
					<trkpt lat="45.605910" lon="4.698460">
						<ele>297</ele>
						<time>2025-06-25T09:40:17Z</time>
					</trkpt>
					<trkpt lat="45.606030" lon="4.698600">
						<ele>298</ele>
						<time>2025-06-25T09:40:38Z</time>
					</trkpt>
					<trkpt lat="45.606250" lon="4.698840">
						<ele>299</ele>
						<time>2025-06-25T09:41:15Z</time>
					</trkpt>
					<trkpt lat="45.606440" lon="4.698930">
						<ele>300</ele>
						<time>2025-06-25T09:41:41Z</time>
					</trkpt>
					<trkpt lat="45.606480" lon="4.698910">
						<ele>301</ele>
						<time>2025-06-25T09:41:47Z</time>
					</trkpt>
					<trkpt lat="45.606560" lon="4.698990">
						<ele>301</ele>
						<time>2025-06-25T09:42:00Z</time>
					</trkpt>
					<trkpt lat="45.606680" lon="4.699060">
						<ele>302</ele>
						<time>2025-06-25T09:42:17Z</time>
					</trkpt>
					<trkpt lat="45.606730" lon="4.699070">
						<ele>301</ele>
						<time>2025-06-25T09:42:24Z</time>
					</trkpt>
					<trkpt lat="45.606780" lon="4.699080">
						<ele>301</ele>
						<time>2025-06-25T09:42:31Z</time>
					</trkpt>
					<trkpt lat="45.606940" lon="4.699160">
						<ele>301</ele>
						<time>2025-06-25T09:42:53Z</time>
					</trkpt>
					<trkpt lat="45.607060" lon="4.699260">
						<ele>301</ele>
						<time>2025-06-25T09:43:12Z</time>
					</trkpt>
					<trkpt lat="45.607250" lon="4.699440">
						<ele>300</ele>
						<time>2025-06-25T09:43:42Z</time>
					</trkpt>
					<trkpt lat="45.607300" lon="4.699460">
						<ele>300</ele>
						<time>2025-06-25T09:43:49Z</time>
					</trkpt>
					<trkpt lat="45.607390" lon="4.699470">
						<ele>300</ele>
						<time>2025-06-25T09:44:01Z</time>
					</trkpt>
					<trkpt lat="45.607520" lon="4.699540">
						<ele>300</ele>
						<time>2025-06-25T09:44:20Z</time>
					</trkpt>
					<trkpt lat="45.607520" lon="4.699570">
						<ele>300</ele>
						<time>2025-06-25T09:44:23Z</time>
					</trkpt>
					<trkpt lat="45.607460" lon="4.700080">
						<ele>299</ele>
						<time>2025-06-25T09:45:11Z</time>
					</trkpt>
					<trkpt lat="45.607430" lon="4.700230">
						<ele>298</ele>
						<time>2025-06-25T09:45:25Z</time>
					</trkpt>
					<trkpt lat="45.607160" lon="4.701220">
						<ele>294</ele>
						<time>2025-06-25T09:47:05Z</time>
					</trkpt>
					<trkpt lat="45.606630" lon="4.703230">
						<ele>288</ele>
						<time>2025-06-25T09:50:25Z</time>
					</trkpt>
					<trkpt lat="45.606310" lon="4.705190">
						<ele>286</ele>
						<time>2025-06-25T09:53:33Z</time>
					</trkpt>
					<trkpt lat="45.606220" lon="4.705770">
						<ele>287</ele>
						<time>2025-06-25T09:54:29Z</time>
					</trkpt>
					<trkpt lat="45.606220" lon="4.705930">
						<ele>286</ele>
						<time>2025-06-25T09:54:43Z</time>
					</trkpt>
					<trkpt lat="45.606200" lon="4.706420">
						<ele>286</ele>
						<time>2025-06-25T09:55:29Z</time>
					</trkpt>
					<trkpt lat="45.606220" lon="4.706670">
						<ele>285</ele>
						<time>2025-06-25T09:55:53Z</time>
					</trkpt>
					<trkpt lat="45.606270" lon="4.706840">
						<ele>286</ele>
						<time>2025-06-25T09:56:10Z</time>
					</trkpt>
					<trkpt lat="45.606460" lon="4.707130">
						<ele>286</ele>
						<time>2025-06-25T09:56:47Z</time>
					</trkpt>
					<trkpt lat="45.606640" lon="4.707360">
						<ele>286</ele>
						<time>2025-06-25T09:57:19Z</time>
					</trkpt>
					<trkpt lat="45.606840" lon="4.707660">
						<ele>287</ele>
						<time>2025-06-25T09:57:58Z</time>
					</trkpt>
					<trkpt lat="45.606960" lon="4.707890">
						<ele>287</ele>
						<time>2025-06-25T09:58:25Z</time>
					</trkpt>
					<trkpt lat="45.606980" lon="4.707950">
						<ele>288</ele>
						<time>2025-06-25T09:58:31Z</time>
					</trkpt>
					<trkpt lat="45.606970" lon="4.708010">
						<ele>288</ele>
						<time>2025-06-25T09:58:37Z</time>
					</trkpt>
					<trkpt lat="45.606950" lon="4.708030">
						<ele>288</ele>
						<time>2025-06-25T09:58:40Z</time>
					</trkpt>
					<trkpt lat="45.606700" lon="4.708410">
						<ele>288</ele>
						<time>2025-06-25T09:59:29Z</time>
					</trkpt>
					<trkpt lat="45.606630" lon="4.708570">
						<ele>288</ele>
						<time>2025-06-25T09:59:46Z</time>
					</trkpt>
					<trkpt lat="45.606580" lon="4.708840">
						<ele>289</ele>
						<time>2025-06-25T10:00:12Z</time>
					</trkpt>
					<trkpt lat="45.606550" lon="4.709060">
						<ele>289</ele>
						<time>2025-06-25T10:00:33Z</time>
					</trkpt>
					<trkpt lat="45.606540" lon="4.709080">
						<ele>289</ele>
						<time>2025-06-25T10:00:36Z</time>
					</trkpt>
					<trkpt lat="45.606260" lon="4.709010">
						<ele>287</ele>
						<time>2025-06-25T10:01:14Z</time>
					</trkpt>
					<trkpt lat="45.605970" lon="4.709010">
						<ele>285</ele>
						<time>2025-06-25T10:01:52Z</time>
					</trkpt>
					<trkpt lat="45.605410" lon="4.708750">
						<ele>284</ele>
						<time>2025-06-25T10:03:11Z</time>
					</trkpt>
					<trkpt lat="45.605240" lon="4.708640">
						<ele>284</ele>
						<time>2025-06-25T10:03:36Z</time>
					</trkpt>
					<trkpt lat="45.605120" lon="4.708590">
						<ele>284</ele>
						<time>2025-06-25T10:03:52Z</time>
					</trkpt>
					<trkpt lat="45.604760" lon="4.708460">
						<ele>284</ele>
						<time>2025-06-25T10:04:42Z</time>
					</trkpt>
					<trkpt lat="45.604370" lon="4.708260">
						<ele>284</ele>
						<time>2025-06-25T10:05:37Z</time>
					</trkpt>
					<trkpt lat="45.604120" lon="4.708200">
						<ele>284</ele>
						<time>2025-06-25T10:06:11Z</time>
					</trkpt>
					<trkpt lat="45.602890" lon="4.708030">
						<ele>288</ele>
						<time>2025-06-25T10:08:56Z</time>
					</trkpt>
					<trkpt lat="45.602250" lon="4.708130">
						<ele>290</ele>
						<time>2025-06-25T10:10:22Z</time>
					</trkpt>
					<trkpt lat="45.601250" lon="4.708170">
						<ele>293</ele>
						<time>2025-06-25T10:12:35Z</time>
					</trkpt>
					<trkpt lat="45.600040" lon="4.707750">
						<ele>300</ele>
						<time>2025-06-25T10:15:22Z</time>
					</trkpt>
					<trkpt lat="45.599990" lon="4.707730">
						<ele>301</ele>
						<time>2025-06-25T10:15:28Z</time>
					</trkpt>
					<trkpt lat="45.599700" lon="4.707820">
						<ele>304</ele>
						<time>2025-06-25T10:16:08Z</time>
					</trkpt>
					<trkpt lat="45.599460" lon="4.708080">
						<ele>305</ele>
						<time>2025-06-25T10:16:48Z</time>
					</trkpt>
					<trkpt lat="45.599120" lon="4.708590">
						<ele>307</ele>
						<time>2025-06-25T10:17:54Z</time>
					</trkpt>
					<trkpt lat="45.599070" lon="4.708660">
						<ele>308</ele>
						<time>2025-06-25T10:18:03Z</time>
					</trkpt>
					<trkpt lat="45.599540" lon="4.708620">
						<ele>304</ele>
						<time>2025-06-25T10:19:06Z</time>
					</trkpt>
					<trkpt lat="45.599670" lon="4.708640">
						<ele>302</ele>
						<time>2025-06-25T10:19:24Z</time>
					</trkpt>
					<trkpt lat="45.600180" lon="4.708780">
						<ele>298</ele>
						<time>2025-06-25T10:20:33Z</time>
					</trkpt>
					<trkpt lat="45.600280" lon="4.708840">
						<ele>297</ele>
						<time>2025-06-25T10:20:47Z</time>
					</trkpt>
					<trkpt lat="45.600570" lon="4.709100">
						<ele>295</ele>
						<time>2025-06-25T10:21:33Z</time>
					</trkpt>
					<trkpt lat="45.600840" lon="4.709410">
						<ele>293</ele>
						<time>2025-06-25T10:22:19Z</time>
					</trkpt>
					<trkpt lat="45.601230" lon="4.709860">
						<ele>292</ele>
						<time>2025-06-25T10:23:26Z</time>
					</trkpt>
					<trkpt lat="45.601470" lon="4.710250">
						<ele>291</ele>
						<time>2025-06-25T10:24:15Z</time>
					</trkpt>
					<trkpt lat="45.601630" lon="4.710540">
						<ele>290</ele>
						<time>2025-06-25T10:24:49Z</time>
					</trkpt>
					<trkpt lat="45.601810" lon="4.710820">
						<ele>289</ele>
						<time>2025-06-25T10:25:25Z</time>
					</trkpt>
					<trkpt lat="45.601980" lon="4.711150">
						<ele>288</ele>
						<time>2025-06-25T10:26:03Z</time>
					</trkpt>
					<trkpt lat="45.602070" lon="4.711380">
						<ele>287</ele>
						<time>2025-06-25T10:26:28Z</time>
					</trkpt>
					<trkpt lat="45.602180" lon="4.711740">
						<ele>285</ele>
						<time>2025-06-25T10:27:04Z</time>
					</trkpt>
					<trkpt lat="45.602370" lon="4.712480">
						<ele>281</ele>
						<time>2025-06-25T10:28:18Z</time>
					</trkpt>
					<trkpt lat="45.602470" lon="4.712840">
						<ele>280</ele>
						<time>2025-06-25T10:28:54Z</time>
					</trkpt>
					<trkpt lat="45.602630" lon="4.713260">
						<ele>279</ele>
						<time>2025-06-25T10:29:39Z</time>
					</trkpt>
					<trkpt lat="45.602670" lon="4.713450">
						<ele>279</ele>
						<time>2025-06-25T10:29:57Z</time>
					</trkpt>
					<trkpt lat="45.602680" lon="4.713640">
						<ele>279</ele>
						<time>2025-06-25T10:30:15Z</time>
					</trkpt>
					<trkpt lat="45.602660" lon="4.713620">
						<ele>279</ele>
						<time>2025-06-25T10:30:18Z</time>
					</trkpt>
					<trkpt lat="45.602540" lon="4.713540">
						<ele>279</ele>
						<time>2025-06-25T10:30:36Z</time>
					</trkpt>
					<trkpt lat="45.602270" lon="4.713570">
						<ele>279</ele>
						<time>2025-06-25T10:31:12Z</time>
					</trkpt>
					<trkpt lat="45.600960" lon="4.714150">
						<ele>281</ele>
						<time>2025-06-25T10:34:15Z</time>
					</trkpt>
					<trkpt lat="45.600390" lon="4.714030">
						<ele>284</ele>
						<time>2025-06-25T10:35:32Z</time>
					</trkpt>
					<trkpt lat="45.600280" lon="4.714070">
						<ele>285</ele>
						<time>2025-06-25T10:35:47Z</time>
					</trkpt>
					<trkpt lat="45.600010" lon="4.714460">
						<ele>286</ele>
						<time>2025-06-25T10:36:38Z</time>
					</trkpt>
					<trkpt lat="45.599820" lon="4.714790">
						<ele>287</ele>
						<time>2025-06-25T10:37:18Z</time>
					</trkpt>
					<trkpt lat="45.599800" lon="4.714850">
						<ele>287</ele>
						<time>2025-06-25T10:37:24Z</time>
					</trkpt>
					<trkpt lat="45.599540" lon="4.715730">
						<ele>288</ele>
						<time>2025-06-25T10:38:54Z</time>
					</trkpt>
					<trkpt lat="45.599360" lon="4.716630">
						<ele>288</ele>
						<time>2025-06-25T10:40:21Z</time>
					</trkpt>
					<trkpt lat="45.599310" lon="4.717030">
						<ele>288</ele>
						<time>2025-06-25T10:40:59Z</time>
					</trkpt>
					<trkpt lat="45.599220" lon="4.717280">
						<ele>289</ele>
						<time>2025-06-25T10:41:25Z</time>
					</trkpt>
					<trkpt lat="45.599100" lon="4.717450">
						<ele>289</ele>
						<time>2025-06-25T10:41:48Z</time>
					</trkpt>
					<trkpt lat="45.599110" lon="4.717540">
						<ele>289</ele>
						<time>2025-06-25T10:41:56Z</time>
					</trkpt>
					<trkpt lat="45.599100" lon="4.717580">
						<ele>289</ele>
						<time>2025-06-25T10:42:00Z</time>
					</trkpt>
					<trkpt lat="45.599080" lon="4.717650">
						<ele>289</ele>
						<time>2025-06-25T10:42:07Z</time>
					</trkpt>
					<trkpt lat="45.599100" lon="4.717830">
						<ele>289</ele>
						<time>2025-06-25T10:42:24Z</time>
					</trkpt>
					<trkpt lat="45.599100" lon="4.717920">
						<ele>289</ele>
						<time>2025-06-25T10:42:33Z</time>
					</trkpt>
					<trkpt lat="45.599020" lon="4.718280">
						<ele>289</ele>
						<time>2025-06-25T10:43:08Z</time>
					</trkpt>
					<trkpt lat="45.598960" lon="4.718610">
						<ele>288</ele>
						<time>2025-06-25T10:43:40Z</time>
					</trkpt>
					<trkpt lat="45.598790" lon="4.719240">
						<ele>288</ele>
						<time>2025-06-25T10:44:43Z</time>
					</trkpt>
					<trkpt lat="45.598340" lon="4.720680">
						<ele>294</ele>
						<time>2025-06-25T10:47:10Z</time>
					</trkpt>
					<trkpt lat="45.598050" lon="4.721570">
						<ele>295</ele>
						<time>2025-06-25T10:48:42Z</time>
					</trkpt>
					<trkpt lat="45.597380" lon="4.723730">
						<ele>295</ele>
						<time>2025-06-25T10:52:22Z</time>
					</trkpt>
					<trkpt lat="45.597380" lon="4.723710">
						<ele>295</ele>
						<time>2025-06-25T10:52:24Z</time>
					</trkpt>
					<trkpt lat="45.597380" lon="4.723730">
						<ele>295</ele>
						<time>2025-06-25T10:52:26Z</time>
					</trkpt>
					<trkpt lat="45.597360" lon="4.724050">
						<ele>294</ele>
						<time>2025-06-25T10:52:56Z</time>
					</trkpt>
					<trkpt lat="45.597330" lon="4.724670">
						<ele>294</ele>
						<time>2025-06-25T10:53:54Z</time>
					</trkpt>
					<trkpt lat="45.597300" lon="4.724850">
						<ele>294</ele>
						<time>2025-06-25T10:54:11Z</time>
					</trkpt>
					<trkpt lat="45.597270" lon="4.724960">
						<ele>294</ele>
						<time>2025-06-25T10:54:22Z</time>
					</trkpt>
					<trkpt lat="45.597200" lon="4.725020">
						<ele>294</ele>
						<time>2025-06-25T10:54:33Z</time>
					</trkpt>
					<trkpt lat="45.596960" lon="4.725000">
						<ele>293</ele>
						<time>2025-06-25T10:55:05Z</time>
					</trkpt>
					<trkpt lat="45.596880" lon="4.725050">
						<ele>293</ele>
						<time>2025-06-25T10:55:17Z</time>
					</trkpt>
					<trkpt lat="45.596830" lon="4.725010">
						<ele>293</ele>
						<time>2025-06-25T10:55:25Z</time>
					</trkpt>
					<trkpt lat="45.596750" lon="4.724960">
						<ele>293</ele>
						<time>2025-06-25T10:55:36Z</time>
					</trkpt>
					<trkpt lat="45.596630" lon="4.724930">
						<ele>293</ele>
						<time>2025-06-25T10:55:53Z</time>
					</trkpt>
					<trkpt lat="45.596530" lon="4.724930">
						<ele>292</ele>
						<time>2025-06-25T10:56:06Z</time>
					</trkpt>
					<trkpt lat="45.596390" lon="4.724990">
						<ele>291</ele>
						<time>2025-06-25T10:56:25Z</time>
					</trkpt>
					<trkpt lat="45.596180" lon="4.725100">
						<ele>289</ele>
						<time>2025-06-25T10:56:55Z</time>
					</trkpt>
					<trkpt lat="45.596060" lon="4.725140">
						<ele>288</ele>
						<time>2025-06-25T10:57:12Z</time>
					</trkpt>
					<trkpt lat="45.595960" lon="4.725140">
						<ele>287</ele>
						<time>2025-06-25T10:57:25Z</time>
					</trkpt>
					<trkpt lat="45.595710" lon="4.725100">
						<ele>287</ele>
						<time>2025-06-25T10:57:59Z</time>
					</trkpt>
					<trkpt lat="45.595500" lon="4.725030">
						<ele>287</ele>
						<time>2025-06-25T10:58:27Z</time>
					</trkpt>
					<trkpt lat="45.595250" lon="4.724860">
						<ele>288</ele>
						<time>2025-06-25T10:59:04Z</time>
					</trkpt>
					<trkpt lat="45.595150" lon="4.724830">
						<ele>288</ele>
						<time>2025-06-25T10:59:18Z</time>
					</trkpt>
					<trkpt lat="45.595040" lon="4.724880">
						<ele>287</ele>
						<time>2025-06-25T10:59:33Z</time>
					</trkpt>
					<trkpt lat="45.594810" lon="4.725230">
						<ele>287</ele>
						<time>2025-06-25T11:00:18Z</time>
					</trkpt>
					<trkpt lat="45.594730" lon="4.725390">
						<ele>287</ele>
						<time>2025-06-25T11:00:37Z</time>
					</trkpt>
					<trkpt lat="45.594480" lon="4.725930">
						<ele>287</ele>
						<time>2025-06-25T11:01:37Z</time>
					</trkpt>
					<trkpt lat="45.594350" lon="4.726130">
						<ele>288</ele>
						<time>2025-06-25T11:02:03Z</time>
					</trkpt>
					<trkpt lat="45.594230" lon="4.726180">
						<ele>289</ele>
						<time>2025-06-25T11:02:19Z</time>
					</trkpt>
					<trkpt lat="45.593330" lon="4.725930">
						<ele>297</ele>
						<time>2025-06-25T11:04:22Z</time>
					</trkpt>
					<trkpt lat="45.593200" lon="4.725770">
						<ele>297</ele>
						<time>2025-06-25T11:04:45Z</time>
					</trkpt>
					<trkpt lat="45.593030" lon="4.725530">
						<ele>298</ele>
						<time>2025-06-25T11:05:16Z</time>
					</trkpt>
					<trkpt lat="45.592970" lon="4.725470">
						<ele>299</ele>
						<time>2025-06-25T11:05:26Z</time>
					</trkpt>
					<trkpt lat="45.592910" lon="4.725500">
						<ele>299</ele>
						<time>2025-06-25T11:05:35Z</time>
					</trkpt>
					<trkpt lat="45.592770" lon="4.725660">
						<ele>299</ele>
						<time>2025-06-25T11:05:59Z</time>
					</trkpt>
					<trkpt lat="45.592220" lon="4.725440">
						<ele>302</ele>
						<time>2025-06-25T11:07:15Z</time>
					</trkpt>
					<trkpt lat="45.591920" lon="4.725300">
						<ele>305</ele>
						<time>2025-06-25T11:07:57Z</time>
					</trkpt>
					<trkpt lat="45.591770" lon="4.725210">
						<ele>306</ele>
						<time>2025-06-25T11:08:19Z</time>
					</trkpt>
					<trkpt lat="45.591710" lon="4.725110">
						<ele>307</ele>
						<time>2025-06-25T11:08:31Z</time>
					</trkpt>
					<trkpt lat="45.591710" lon="4.725110">
						<ele>307</ele>
						<time>2025-06-25T11:08:31Z</time>
					</trkpt>
					<trkpt lat="45.591710" lon="4.725110">
						<ele>307</ele>
						<time>2025-06-25T11:08:31Z</time>
					</trkpt>
					<trkpt lat="45.591490" lon="4.724560">
						<ele>312</ele>
						<time>2025-06-25T11:09:30Z</time>
					</trkpt>
					<trkpt lat="45.591340" lon="4.724280">
						<ele>316</ele>
						<time>2025-06-25T11:10:03Z</time>
					</trkpt>
					<trkpt lat="45.591110" lon="4.723930">
						<ele>319</ele>
						<time>2025-06-25T11:10:48Z</time>
					</trkpt>
					<trkpt lat="45.590920" lon="4.723580">
						<ele>322</ele>
						<time>2025-06-25T11:11:29Z</time>
					</trkpt>
					<trkpt lat="45.590820" lon="4.723460">
						<ele>323</ele>
						<time>2025-06-25T11:11:47Z</time>
					</trkpt>
					<trkpt lat="45.590640" lon="4.723140">
						<ele>323</ele>
						<time>2025-06-25T11:12:25Z</time>
					</trkpt>
					<trkpt lat="45.590490" lon="4.722830">
						<ele>322</ele>
						<time>2025-06-25T11:13:00Z</time>
					</trkpt>
					<trkpt lat="45.590350" lon="4.722650">
						<ele>322</ele>
						<time>2025-06-25T11:13:26Z</time>
					</trkpt>
					<trkpt lat="45.590070" lon="4.722490">
						<ele>323</ele>
						<time>2025-06-25T11:14:06Z</time>
					</trkpt>
					<trkpt lat="45.589720" lon="4.722310">
						<ele>322</ele>
						<time>2025-06-25T11:14:55Z</time>
					</trkpt>
					<trkpt lat="45.589360" lon="4.722140">
						<ele>322</ele>
						<time>2025-06-25T11:15:46Z</time>
					</trkpt>
					<trkpt lat="45.589180" lon="4.722050">
						<ele>323</ele>
						<time>2025-06-25T11:16:11Z</time>
					</trkpt>
					<trkpt lat="45.589150" lon="4.722020">
						<ele>323</ele>
						<time>2025-06-25T11:16:16Z</time>
					</trkpt>
					<trkpt lat="45.589120" lon="4.722000">
						<ele>322</ele>
						<time>2025-06-25T11:16:21Z</time>
					</trkpt>
					<trkpt lat="45.589080" lon="4.721980">
						<ele>322</ele>
						<time>2025-06-25T11:16:26Z</time>
					</trkpt>
					<trkpt lat="45.589090" lon="4.721600">
						<ele>323</ele>
						<time>2025-06-25T11:17:02Z</time>
					</trkpt>
					<trkpt lat="45.589070" lon="4.721440">
						<ele>322</ele>
						<time>2025-06-25T11:17:17Z</time>
					</trkpt>
					<trkpt lat="45.589100" lon="4.721360">
						<ele>322</ele>
						<time>2025-06-25T11:17:26Z</time>
					</trkpt>
					<trkpt lat="45.589130" lon="4.720920">
						<ele>321</ele>
						<time>2025-06-25T11:18:07Z</time>
					</trkpt>
					<trkpt lat="45.589150" lon="4.720810">
						<ele>321</ele>
						<time>2025-06-25T11:18:17Z</time>
					</trkpt>
					<trkpt lat="45.589250" lon="4.720060">
						<ele>319</ele>
						<time>2025-06-25T11:19:29Z</time>
					</trkpt>
					<trkpt lat="45.589260" lon="4.719520">
						<ele>317</ele>
						<time>2025-06-25T11:20:19Z</time>
					</trkpt>
					<trkpt lat="45.589160" lon="4.718600">
						<ele>315</ele>
						<time>2025-06-25T11:21:46Z</time>
					</trkpt>
					<trkpt lat="45.589070" lon="4.717830">
						<ele>314</ele>
						<time>2025-06-25T11:22:59Z</time>
					</trkpt>
					<trkpt lat="45.589020" lon="4.717100">
						<ele>313</ele>
						<time>2025-06-25T11:24:08Z</time>
					</trkpt>
					<trkpt lat="45.589040" lon="4.716480">
						<ele>314</ele>
						<time>2025-06-25T11:25:06Z</time>
					</trkpt>
					<trkpt lat="45.589070" lon="4.715900">
						<ele>314</ele>
						<time>2025-06-25T11:26:00Z</time>
					</trkpt>
					<trkpt lat="45.589100" lon="4.715370">
						<ele>314</ele>
						<time>2025-06-25T11:26:50Z</time>
					</trkpt>
					<trkpt lat="45.589020" lon="4.713980">
						<ele>314</ele>
						<time>2025-06-25T11:29:00Z</time>
					</trkpt>
					<trkpt lat="45.588860" lon="4.712140">
						<ele>312</ele>
						<time>2025-06-25T11:31:53Z</time>
					</trkpt>
					<trkpt lat="45.588710" lon="4.710840">
						<ele>311</ele>
						<time>2025-06-25T11:33:56Z</time>
					</trkpt>
					<trkpt lat="45.588620" lon="4.710030">
						<ele>311</ele>
						<time>2025-06-25T11:35:13Z</time>
					</trkpt>
					<trkpt lat="45.588600" lon="4.709630">
						<ele>311</ele>
						<time>2025-06-25T11:35:50Z</time>
					</trkpt>
					<trkpt lat="45.588590" lon="4.708940">
						<ele>310</ele>
						<time>2025-06-25T11:36:54Z</time>
					</trkpt>
					<trkpt lat="45.588650" lon="4.708200">
						<ele>308</ele>
						<time>2025-06-25T11:38:04Z</time>
					</trkpt>
					<trkpt lat="45.588650" lon="4.708010">
						<ele>308</ele>
						<time>2025-06-25T11:38:22Z</time>
					</trkpt>
					<trkpt lat="45.588620" lon="4.707280">
						<ele>307</ele>
						<time>2025-06-25T11:39:30Z</time>
					</trkpt>
					<trkpt lat="45.588610" lon="4.706860">
						<ele>306</ele>
						<time>2025-06-25T11:40:09Z</time>
					</trkpt>
					<trkpt lat="45.588660" lon="4.706160">
						<ele>307</ele>
						<time>2025-06-25T11:41:15Z</time>
					</trkpt>
					<trkpt lat="45.588640" lon="4.705570">
						<ele>308</ele>
						<time>2025-06-25T11:42:10Z</time>
					</trkpt>
					<trkpt lat="45.588650" lon="4.705390">
						<ele>309</ele>
						<time>2025-06-25T11:42:27Z</time>
					</trkpt>
					<trkpt lat="45.588700" lon="4.705280">
						<ele>309</ele>
						<time>2025-06-25T11:42:39Z</time>
					</trkpt>
					<trkpt lat="45.588720" lon="4.705330">
						<ele>309</ele>
						<time>2025-06-25T11:42:45Z</time>
					</trkpt>
					<trkpt lat="45.588700" lon="4.705280">
						<ele>309</ele>
						<time>2025-06-25T11:42:50Z</time>
					</trkpt>
					<trkpt lat="45.588810" lon="4.705230">
						<ele>310</ele>
						<time>2025-06-25T11:43:05Z</time>
					</trkpt>
					<trkpt lat="45.588870" lon="4.704880">
						<ele>311</ele>
						<time>2025-06-25T11:43:39Z</time>
					</trkpt>
					<trkpt lat="45.588950" lon="4.703740">
						<ele>313</ele>
						<time>2025-06-25T11:45:26Z</time>
					</trkpt>
					<trkpt lat="45.589050" lon="4.702880">
						<ele>315</ele>
						<time>2025-06-25T11:46:47Z</time>
					</trkpt>
					<trkpt lat="45.589070" lon="4.702820">
						<ele>316</ele>
						<time>2025-06-25T11:46:54Z</time>
					</trkpt>
					<trkpt lat="45.589310" lon="4.701710">
						<ele>318</ele>
						<time>2025-06-25T11:48:42Z</time>
					</trkpt>
					<trkpt lat="45.589350" lon="4.701590">
						<ele>318</ele>
						<time>2025-06-25T11:48:55Z</time>
					</trkpt>
					<trkpt lat="45.589570" lon="4.700860">
						<ele>318</ele>
						<time>2025-06-25T11:50:09Z</time>
					</trkpt>
					<trkpt lat="45.589540" lon="4.700780">
						<ele>319</ele>
						<time>2025-06-25T11:50:17Z</time>
					</trkpt>
					<trkpt lat="45.589590" lon="4.700570">
						<ele>319</ele>
						<time>2025-06-25T11:50:38Z</time>
					</trkpt>
					<trkpt lat="45.589830" lon="4.699420">
						<ele>322</ele>
						<time>2025-06-25T11:52:30Z</time>
					</trkpt>
					<trkpt lat="45.589870" lon="4.699300">
						<ele>322</ele>
						<time>2025-06-25T11:52:42Z</time>
					</trkpt>
					<trkpt lat="45.589850" lon="4.699300">
						<ele>322</ele>
						<time>2025-06-25T11:52:45Z</time>
					</trkpt>
					<trkpt lat="45.589870" lon="4.699300">
						<ele>322</ele>
						<time>2025-06-25T11:52:48Z</time>
					</trkpt>
					<trkpt lat="45.589890" lon="4.699240">
						<ele>322</ele>
						<time>2025-06-25T11:52:54Z</time>
					</trkpt>
					<trkpt lat="45.589920" lon="4.699010">
						<ele>322</ele>
						<time>2025-06-25T11:53:16Z</time>
					</trkpt>
					<trkpt lat="45.589920" lon="4.698760">
						<ele>323</ele>
						<time>2025-06-25T11:53:39Z</time>
					</trkpt>
					<trkpt lat="45.589880" lon="4.698270">
						<ele>324</ele>
						<time>2025-06-25T11:54:25Z</time>
					</trkpt>
					<trkpt lat="45.589810" lon="4.697920">
						<ele>325</ele>
						<time>2025-06-25T11:54:59Z</time>
					</trkpt>
					<trkpt lat="45.589830" lon="4.697640">
						<ele>326</ele>
						<time>2025-06-25T11:55:26Z</time>
					</trkpt>
					<trkpt lat="45.589850" lon="4.697140">
						<ele>327</ele>
						<time>2025-06-25T11:56:12Z</time>
					</trkpt>
					<trkpt lat="45.589880" lon="4.695200">
						<ele>335</ele>
						<time>2025-06-25T11:59:14Z</time>
					</trkpt>
					<trkpt lat="45.589870" lon="4.695130">
						<ele>335</ele>
						<time>2025-06-25T11:59:20Z</time>
					</trkpt>
					<trkpt lat="45.589920" lon="4.693720">
						<ele>338</ele>
						<time>2025-06-25T12:01:32Z</time>
					</trkpt>
					<trkpt lat="45.589920" lon="4.693160">
						<ele>338</ele>
						<time>2025-06-25T12:02:24Z</time>
					</trkpt>
					<trkpt lat="45.588720" lon="4.692740">
						<ele>335</ele>
						<time>2025-06-25T12:05:09Z</time>
					</trkpt>
					<trkpt lat="45.588400" lon="4.692790">
						<ele>334</ele>
						<time>2025-06-25T12:05:52Z</time>
					</trkpt>
					<trkpt lat="45.588220" lon="4.692810">
						<ele>333</ele>
						<time>2025-06-25T12:06:16Z</time>
					</trkpt>
					<trkpt lat="45.588080" lon="4.692840">
						<ele>333</ele>
						<time>2025-06-25T12:06:35Z</time>
					</trkpt>
					<trkpt lat="45.587250" lon="4.693040">
						<ele>329</ele>
						<time>2025-06-25T12:08:27Z</time>
					</trkpt>
					<trkpt lat="45.587230" lon="4.692960">
						<ele>329</ele>
						<time>2025-06-25T12:08:35Z</time>
					</trkpt>
					<trkpt lat="45.587110" lon="4.692780">
						<ele>329</ele>
						<time>2025-06-25T12:08:59Z</time>
					</trkpt>
					<trkpt lat="45.587030" lon="4.692850">
						<ele>329</ele>
						<time>2025-06-25T12:09:11Z</time>
					</trkpt>
					<trkpt lat="45.586740" lon="4.692950">
						<ele>328</ele>
						<time>2025-06-25T12:09:51Z</time>
					</trkpt>
					<trkpt lat="45.586460" lon="4.693040">
						<ele>327</ele>
						<time>2025-06-25T12:10:29Z</time>
					</trkpt>
					<trkpt lat="45.585830" lon="4.693130">
						<ele>324</ele>
						<time>2025-06-25T12:11:54Z</time>
					</trkpt>
					<trkpt lat="45.585560" lon="4.693170">
						<ele>324</ele>
						<time>2025-06-25T12:12:30Z</time>
					</trkpt>
					<trkpt lat="45.585470" lon="4.693180">
						<ele>324</ele>
						<time>2025-06-25T12:12:42Z</time>
					</trkpt>
					<trkpt lat="45.585450" lon="4.693180">
						<ele>324</ele>
						<time>2025-06-25T12:12:45Z</time>
					</trkpt>
					<trkpt lat="45.584990" lon="4.693220">
						<ele>324</ele>
						<time>2025-06-25T12:13:46Z</time>
					</trkpt>
					<trkpt lat="45.584630" lon="4.693270">
						<ele>323</ele>
						<time>2025-06-25T12:14:34Z</time>
					</trkpt>
					<trkpt lat="45.584440" lon="4.693260">
						<ele>323</ele>
						<time>2025-06-25T12:15:00Z</time>
					</trkpt>
					<trkpt lat="45.584260" lon="4.693270">
						<ele>322</ele>
						<time>2025-06-25T12:15:24Z</time>
					</trkpt>
					<trkpt lat="45.584270" lon="4.693240">
						<ele>323</ele>
						<time>2025-06-25T12:15:27Z</time>
					</trkpt>
					</trkseg>
				</trk>
			</gpx>